Time;durP1;ratioP1;P1;durP2;ratioP2;P2;SDS_P1;SDS_P2;PMS_P1;PMS_P2;Temp;Humidity;BMP_temperature;BMP_pressure;BME280_temperature;BME280_humidity;BME280_pressure;Samples;Min_cycle;Max_cycle;Signal;HPM_P1;HPM_P2
2021/12/25 00:00:17;;;;;;;45.67;21.67;;;;;;;5.75;75.07;96203.16;5093468;28;20461;-32
2021/12/25 00:02:45;;;;;;;31.20;16.37;;;;;;;5.74;75.16;96204.22;5093169;28;20514;-31
2021/12/25 00:05:15;;;;;;;32.40;12.90;;;;;;;5.74;75.20;96209.47;5093155;28;20439;-30
2021/12/25 00:07:43;;;;;;;23.70;12.00;;;;;;;5.78;75.07;96209.03;5093150;28;20435;-31
2021/12/25 00:10:12;;;;;;;27.40;11.60;;;;;;;5.88;74.70;96217.22;5093439;28;20439;-30
2021/12/25 00:12:39;;;;;;;25.40;13.40;;;;;;;6.08;73.75;96217.00;5093079;28;20435;-31
2021/12/25 00:15:07;;;;;;;22.60;12.00;;;;;;;6.16;73.30;96208.81;5093391;28;20449;-30
2021/12/25 00:17:34;;;;;;;20.70;10.70;;;;;;;6.29;72.52;96216.53;5092989;28;21008;-31
2021/12/25 00:20:01;;;;;;;17.50;8.60;;;;;;;6.39;71.99;96205.47;5092730;28;20470;-31
2021/12/25 00:22:28;;;;;;;10.20;5.33;;;;;;;6.51;71.97;96214.22;5093196;28;20903;-32
2021/12/25 00:24:56;;;;;;;13.30;5.90;;;;;;;6.58;71.68;96208.84;5093612;28;21032;-31
2021/12/25 00:27:41;;;;;;;14.93;5.17;;;;;;;6.57;71.87;96208.03;5096695;28;20926;-30
2021/12/25 00:30:19;;;;;;;9.40;4.93;;;;;;;6.50;72.15;96217.88;5096994;28;20439;-30
2021/12/25 00:32:53;;;;;;;32.97;16.70;;;;;;;6.35;73.21;96214.84;5096693;28;20445;-30
2021/12/25 00:35:21;;;;;;;36.80;17.73;;;;;;;6.30;72.78;96227.88;5096856;28;20431;-30
2021/12/25 00:37:48;;;;;;;31.47;17.47;;;;;;;6.25;73.15;96219.84;5096474;28;20487;-30
2021/12/25 00:40:17;;;;;;;43.87;23.63;;;;;;;6.18;73.66;96225.22;5096485;28;20443;-31
2021/12/25 00:42:46;;;;;;;52.57;25.27;;;;;;;6.13;73.68;96220.59;5096431;28;20438;-30
2021/12/25 00:45:14;;;;;;;32.50;16.23;;;;;;;6.13;73.13;96214.50;5096405;28;20534;-31
2021/12/25 00:47:41;;;;;;;26.27;12.40;;;;;;;6.15;73.41;96208.00;5096641;28;20461;-30
2021/12/25 00:50:09;;;;;;;26.90;12.40;;;;;;;6.13;73.76;96212.69;5096632;28;20472;-31
2021/12/25 00:52:37;;;;;;;30.53;14.80;;;;;;;6.07;74.30;96213.59;5096219;28;20926;-31
2021/12/25 00:55:07;;;;;;;36.60;16.53;;;;;;;5.94;74.84;96214.53;5096203;28;20446;-31
2021/12/25 00:57:36;;;;;;;13.30;7.73;;;;;;;5.93;74.34;96207.63;5097240;28;20522;-30
2021/12/25 01:00:09;;;;;;;29.77;11.70;;;;;;;6.01;73.98;96218.94;5096082;28;20435;-31
2021/12/25 01:02:39;;;;;;;21.33;9.70;;;;;;;6.03;73.86;96222.94;5096128;28;20481;-31
2021/12/25 01:05:08;;;;;;;24.17;12.10;;;;;;;5.99;75.06;96216.50;5096043;28;20450;-31
2021/12/25 01:07:35;;;;;;;28.00;13.53;;;;;;;5.99;74.95;96215.72;5095989;28;20449;-30
2021/12/25 01:10:06;;;;;;;15.47;9.40;;;;;;;6.03;74.69;96222.94;5095900;28;20442;-30
2021/12/25 01:12:47;;;;;;;21.73;7.00;;;;;;;6.04;74.81;96219.28;5095941;28;20440;-31
2021/12/25 01:15:20;;;;;;;7.60;5.30;;;;;;;5.98;74.60;96209.66;5095834;28;20435;-31
2021/12/25 01:18:10;;;;;;;5.83;4.23;;;;;;;5.96;75.40;96211.69;5095774;28;21068;-31
2021/12/25 01:21:07;;;;;;;9.80;5.53;;;;;;;5.93;75.62;96204.19;5095732;28;21022;-30
2021/12/25 01:29:29;;;;;;;15.83;7.00;;;;;;;5.95;74.75;96199.53;5095942;28;20445;-30
2021/12/25 01:32:20;;;;;;;14.37;8.93;;;;;;;6.02;74.73;96194.97;5095894;28;20492;-31
2021/12/25 01:37:40;;;;;;;20.17;10.00;;;;;;;6.10;74.79;96207.84;5093866;28;20470;-31
2021/12/25 01:40:39;;;;;;;14.40;7.60;;;;;;;6.09;75.04;96205.47;5095396;28;20484;-30
2021/12/25 01:48:40;;;;;;;25.47;10.07;;;;;;;6.10;74.30;96207.84;5095576;28;20406;-31
2021/12/25 01:51:08;;;;;;;16.20;8.70;;;;;;;6.11;74.64;96198.94;5095089;28;20428;-31
2021/12/25 01:53:35;;;;;;;15.90;7.30;;;;;;;6.12;74.43;96199.72;5095023;28;20950;-32
2021/12/25 01:56:03;;;;;;;15.60;8.50;;;;;;;6.16;73.89;96190.34;5095287;28;20800;-31
2021/12/25 01:58:32;;;;;;;14.73;9.10;;;;;;;6.24;73.43;96199.78;5095136;28;20497;-30
2021/12/25 02:01:00;;;;;;;7.43;6.20;;;;;;;6.27;73.13;96201.97;5094895;28;20943;-31
2021/12/25 02:03:31;;;;;;;7.40;5.47;;;;;;;6.23;73.11;96190.28;5094884;28;20443;-31
2021/12/25 02:06:00;;;;;;;5.57;4.30;;;;;;;6.28;72.97;96198.31;5094817;28;20468;-31
2021/12/25 02:08:28;;;;;;;15.30;6.73;;;;;;;6.25;73.60;96190.84;5095041;28;20447;-32
2021/12/25 02:10:57;;;;;;;8.63;5.20;;;;;;;6.23;73.40;96198.19;5094999;28;20457;-31
2021/12/25 02:13:24;;;;;;;5.43;3.50;;;;;;;6.18;73.76;96190.94;5095466;28;20446;-32
2021/12/25 02:15:54;;;;;;;8.43;6.53;;;;;;;6.15;73.54;96202.75;5094930;28;20446;-31
2021/12/25 02:18:26;;;;;;;11.27;5.93;;;;;;;6.15;73.57;96194.84;5094749;28;20522;-31
2021/12/25 02:21:02;;;;;;;11.97;5.47;;;;;;;6.06;74.16;96184.81;5094392;28;20524;-31
2021/12/25 02:23:31;;;;;;;19.93;7.17;;;;;;;6.02;74.45;96179.16;5094534;28;20431;-30
2021/12/25 02:25:59;;;;;;;23.90;11.20;;;;;;;5.88;74.78;96167.97;5094397;28;20450;-32
2021/12/25 02:28:28;;;;;;;16.37;8.60;;;;;;;5.93;75.36;96183.09;5094637;28;20470;-31
2021/12/25 02:30:59;;;;;;;42.43;18.70;;;;;;;5.90;75.54;96178.28;5094319;28;20933;-31
2021/12/25 02:33:28;;;;;;;20.10;10.50;;;;;;;5.89;75.37;96179.31;5094585;28;20423;-31
2021/12/25 02:35:57;;;;;;;16.50;8.70;;;;;;;5.83;75.62;96190.72;5094603;28;20444;-31
2021/12/25 02:38:26;;;;;;;32.57;14.80;;;;;;;5.79;75.83;96181.69;5094127;28;20486;-30
2021/12/25 02:40:54;;;;;;;26.40;11.80;;;;;;;5.69;76.11;96175.06;5094715;28;20447;-32
2021/12/25 02:43:21;;;;;;;17.80;7.47;;;;;;;5.58;76.30;96162.66;5094409;28;20447;-32
2021/12/25 02:45:49;;;;;;;23.73;10.90;;;;;;;5.71;76.17;96186.19;5093982;28;20457;-32
2021/12/25 02:48:19;;;;;;;19.73;8.37;;;;;;;5.63;76.66;96181.22;5093388;28;20450;-30
2021/12/25 02:50:46;;;;;;;14.23;5.13;;;;;;;5.43;77.46;96159.56;5094106;28;20520;-31
2021/12/25 02:53:16;;;;;;;6.70;4.33;;;;;;;5.59;77.40;96190.56;5094265;28;20451;-30
2021/12/25 02:55:45;;;;;;;8.90;4.50;;;;;;;5.48;77.53;96180.78;5093835;28;20945;-31
2021/12/25 02:58:13;;;;;;;4.80;3.70;;;;;;;5.54;78.15;96182.53;5094137;28;20513;-31
2021/12/25 03:00:42;;;;;;;6.70;3.37;;;;;;;5.51;78.36;96194.31;5094070;28;20446;-31
2021/12/25 03:03:09;;;;;;;5.33;2.60;;;;;;;5.51;78.36;96183.00;5093781;28;20435;-31
2021/12/25 03:05:37;;;;;;;4.00;2.90;;;;;;;5.52;78.82;96189.84;5093794;28;20443;-30
2021/12/25 03:08:07;;;;;;;5.13;3.27;;;;;;;5.41;78.79;96188.75;5094015;28;20442;-30
2021/12/25 03:10:37;;;;;;;4.10;2.77;;;;;;;5.39;79.19;96193.41;5093670;28;20439;-30
2021/12/25 03:13:18;;;;;;;3.20;2.67;;;;;;;5.39;79.38;96205.78;5093907;28;20443;-30
2021/12/25 03:15:49;;;;;;;4.03;3.07;;;;;;;5.37;79.91;96200.72;5093716;28;20434;-30
2021/12/25 03:18:18;;;;;;;6.10;3.90;;;;;;;5.35;79.93;96197.50;5093916;28;20914;-30
2021/12/25 03:20:48;;;;;;;8.67;5.60;;;;;;;5.30;80.19;96197.38;5093499;28;20478;-31
2021/12/25 03:23:20;;;;;;;8.57;4.10;;;;;;;5.23;80.29;96200.06;5093534;28;20439;-31
2021/12/25 03:25:51;;;;;;;4.97;3.53;;;;;;;5.22;80.76;96211.59;5094419;28;20431;-30
2021/12/25 03:28:21;;;;;;;8.17;3.87;;;;;;;5.20;81.11;96208.38;5093788;28;20427;-30
2021/12/25 03:30:49;;;;;;;9.23;5.40;;;;;;;5.17;81.18;96205.38;5093505;28;20443;-31
2021/12/25 03:33:18;;;;;;;12.70;6.30;;;;;;;5.12;81.74;96211.31;5093761;28;20474;-31
2021/12/25 03:35:46;;;;;;;8.80;4.67;;;;;;;5.06;82.07;96209.53;5093464;28;20435;-31
2021/12/25 03:38:19;;;;;;;7.47;3.90;;;;;;;5.07;82.13;96219.03;5093370;28;21043;-31
2021/12/25 03:40:49;;;;;;;13.90;6.93;;;;;;;5.12;82.46;96217.38;5094319;28;20440;-31
2021/12/25 03:43:17;;;;;;;25.27;13.23;;;;;;;5.15;81.99;96216.13;5093710;28;20819;-30
2021/12/25 03:45:45;;;;;;;11.33;8.37;;;;;;;5.18;81.92;96212.25;5093315;28;20449;-31
2021/12/25 03:48:16;;;;;;;24.73;11.17;;;;;;;5.17;81.38;96206.19;5093341;28;20450;-31
2021/12/25 03:57:36;;;;;;;12.00;7.00;;;;;;;5.27;80.62;96224.94;5093459;28;20922;-31
2021/12/25 03:59:13;;;;;;;58.07;18.50;;;;;;;5.29;80.64;96228.16;5093574;28;20462;-30
2021/12/25 04:01:47;;;;;;;51.70;17.10;;;;;;;5.34;81.20;96222.25;5097073;28;20448;-31
2021/12/25 04:04:21;;;;;;;42.50;12.90;;;;;;;5.34;81.00;96225.66;5097304;28;20435;-31
2021/12/25 04:06:54;;;;;;;20.60;7.00;;;;;;;5.38;81.38;96225.22;5098038;28;20435;-31
2021/12/25 04:09:25;;;;;;;8.53;6.53;;;;;;;5.39;80.94;96232.13;5097102;28;20435;-31
2021/12/25 04:11:54;;;;;;;8.40;6.30;;;;;;;5.38;80.57;96230.47;5097501;28;20459;-30
2021/12/25 04:14:21;;;;;;;11.30;5.77;;;;;;;5.38;80.67;96230.47;5097342;28;20438;-30
2021/12/25 04:16:49;;;;;;;5.50;3.80;;;;;;;5.40;80.52;96238.97;5096956;28;20443;-31
2021/12/25 04:19:17;;;;;;;7.57;3.30;;;;;;;5.38;80.52;96246.28;5096850;28;20998;-31
2021/12/25 04:21:52;;;;;;;5.43;3.10;;;;;;;5.38;80.73;96241.00;5096959;28;20437;-30
2021/12/25 04:24:19;;;;;;;5.20;2.90;;;;;;;5.32;81.11;96242.72;5097180;28;20451;-32
2021/12/25 04:26:48;;;;;;;5.33;2.67;;;;;;;5.33;81.07;96255.66;5096769;28;20447;-30
2021/12/25 04:29:34;;;;;;;6.80;3.60;;;;;;;5.34;81.04;96257.25;5096717;28;20483;-31
2021/12/25 04:32:41;;;;;;;98.37;41.40;;;;;;;5.38;80.85;96262.06;5096990;28;20498;-31
2021/12/25 04:49:43;;;;;;;31.83;16.07;;;;;;;5.51;80.16;96270.69;5096852;28;20406;-30
2021/12/25 05:03:14;;;;;;;33.40;15.00;;;;;;;5.36;80.62;96266.78;5096270;28;20407;-31
2021/12/25 05:05:42;;;;;;;30.60;13.60;;;;;;;5.31;80.95;96262.97;5094965;28;20432;-31
2021/12/25 05:08:09;;;;;;;44.50;15.97;;;;;;;5.29;81.13;96262.38;5095008;28;20484;-33
2021/12/25 05:10:36;;;;;;;55.07;22.43;;;;;;;5.29;81.03;96265.00;5094600;28;20438;-31
2021/12/25 05:13:04;;;;;;;40.03;18.43;;;;;;;5.25;81.05;96269.09;5093777;28;20447;-34
2021/12/25 05:15:31;;;;;;;47.33;21.20;;;;;;;5.24;80.94;96272.72;5094796;28;20505;-31
2021/12/25 05:17:58;;;;;;;61.60;24.93;;;;;;;5.26;81.11;96268.06;5094365;28;20482;-32
2021/12/25 05:20:26;;;;;;;57.40;20.53;;;;;;;5.21;81.14;96267.91;5094425;28;20811;-33
2021/12/25 05:22:53;;;;;;;57.23;24.03;;;;;;;5.22;81.03;96274.75;5092049;28;20451;-32
2021/12/25 05:25:21;;;;;;;43.40;21.83;;;;;;;5.25;81.75;96278.81;5095243;28;20435;-31
2021/12/25 05:27:49;;;;;;;39.60;23.77;;;;;;;5.24;81.60;96288.50;5095583;28;20431;-32
2021/12/25 05:30:17;;;;;;;33.87;15.80;;;;;;;5.28;81.47;96288.91;5092733;28;20518;-32
2021/12/25 05:32:45;;;;;;;44.27;19.70;;;;;;;5.29;81.44;96283.44;5095154;28;20431;-33
2021/12/25 05:35:12;;;;;;;61.57;26.73;;;;;;;5.28;81.44;96279.16;5095344;28;20427;-32
2021/12/25 05:37:40;;;;;;;52.83;30.37;;;;;;;5.33;81.52;96289.88;5095289;28;20428;-31
2021/12/25 05:40:09;;;;;;;55.00;29.33;;;;;;;5.37;81.58;96289.44;5095414;28;20451;-31
2021/12/25 05:42:36;;;;;;;42.23;22.23;;;;;;;5.39;81.31;96290.03;5095284;28;20509;-31
2021/12/25 05:45:04;;;;;;;68.63;25.77;;;;;;;5.39;81.58;96296.09;5095349;28;20938;-30
2021/12/25 05:47:32;;;;;;;55.50;20.40;;;;;;;5.38;81.74;96291.03;5095179;28;20447;-30
2021/12/25 05:49:59;;;;;;;39.63;18.07;;;;;;;5.37;81.54;96284.19;5095303;28;20447;-31
2021/12/25 05:52:26;;;;;;;32.60;14.50;;;;;;;5.39;81.55;96288.19;5096150;28;20435;-30
2021/12/25 05:54:55;;;;;;;32.67;14.43;;;;;;;5.43;81.71;96291.22;5095051;28;20446;-30
2021/12/25 05:57:22;;;;;;;27.83;13.43;;;;;;;5.47;81.85;96293.19;5095336;28;20451;-31
2021/12/25 05:59:49;;;;;;;69.67;26.63;;;;;;;5.52;81.93;96297.81;5095198;28;20494;-30
2021/12/25 06:02:16;;;;;;;87.27;28.23;;;;;;;5.58;81.56;96298.78;5094987;28;20447;-30
2021/12/25 06:04:44;;;;;;;90.30;41.17;;;;;;;5.63;81.91;96296.28;5095148;28;20449;-31
2021/12/25 06:07:11;;;;;;;129.07;56.03;;;;;;;5.69;81.76;96301.50;5094830;28;20451;-31
2021/12/25 06:09:39;;;;;;;83.90;46.00;;;;;;;5.74;81.90;96304.31;5095268;28;20447;-31
2021/12/25 06:12:10;;;;;;;82.17;44.07;;;;;;;5.82;81.58;96300.56;5095002;28;20447;-31
2021/12/25 06:14:37;;;;;;;76.27;38.23;;;;;;;5.90;81.61;96313.47;5094789;28;20506;-31
2021/12/25 06:17:05;;;;;;;66.90;34.10;;;;;;;5.89;81.81;96303.13;5094907;28;20462;-31
2021/12/25 06:19:32;;;;;;;85.43;37.40;;;;;;;5.92;81.61;96305.34;5094618;28;20498;-31
2021/12/25 06:21:59;;;;;;;141.83;50.20;;;;;;;5.94;81.16;96309.41;5094868;28;20784;-32
2021/12/25 06:24:29;;;;;;;128.43;59.97;;;;;;;5.97;80.80;96313.44;5095740;28;20446;-31
2021/12/25 06:26:56;;;;;;;123.67;57.30;;;;;;;6.04;80.42;96313.34;5094759;28;20455;-30
2021/12/25 06:29:25;;;;;;;92.90;43.13;;;;;;;6.09;80.31;96324.06;5093873;28;20432;-32
2021/12/25 06:31:52;;;;;;;100.57;43.93;;;;;;;6.13;80.33;96320.75;5093913;28;20438;-32
2021/12/25 06:34:20;;;;;;;72.93;33.53;;;;;;;6.16;80.34;96327.41;5094059;28;20431;-30
2021/12/25 06:36:47;;;;;;;78.67;35.33;;;;;;;6.15;80.36;96321.34;5093949;28;20432;-31
2021/12/25 06:39:16;;;;;;;102.17;42.03;;;;;;;6.18;80.61;96324.56;5093690;28;21001;-30
2021/12/25 06:41:44;;;;;;;77.53;36.07;;;;;;;6.21;80.04;96324.13;5094564;28;20453;-30
2021/12/25 06:44:11;;;;;;;64.57;30.67;;;;;;;6.25;80.50;96320.81;5094183;28;20439;-31
2021/12/25 06:46:39;;;;;;;53.27;30.77;;;;;;;6.28;80.62;96316.94;5094109;28;20476;-31
2021/12/25 06:49:07;;;;;;;61.33;27.43;;;;;;;6.33;80.50;96322.38;5094397;28;20435;-31
2021/12/25 06:51:35;;;;;;;55.20;25.47;;;;;;;6.37;80.55;96318.28;5094364;28;20818;-31
2021/12/25 06:54:03;;;;;;;49.90;25.47;;;;;;;6.38;80.79;96322.50;5094381;28;20447;-30
2021/12/25 06:56:30;;;;;;;49.43;26.93;;;;;;;6.43;81.08;96325.31;5093952;28;20443;-31
2021/12/25 06:58:58;;;;;;;59.60;29.77;;;;;;;6.47;81.30;96337.00;5092998;28;20482;-31
2021/12/25 07:01:25;;;;;;;91.07;39.00;;;;;;;6.48;81.42;96335.97;5092929;28;20984;-32
2021/12/25 07:03:53;;;;;;;108.03;44.10;;;;;;;6.54;80.76;96340.38;5093836;28;20450;-31
2021/12/25 07:06:22;;;;;;;95.50;44.10;;;;;;;6.64;80.23;96350.38;5092838;28;20446;-31
2021/12/25 07:08:49;;;;;;;154.53;77.27;;;;;;;6.66;80.00;96358.09;5093759;28;21006;-32
2021/12/25 07:11:18;;;;;;;116.73;60.40;;;;;;;6.68;79.57;96356.03;5094035;28;20439;-32
2021/12/25 07:13:46;;;;;;;99.67;47.93;;;;;;;6.70;79.84;96357.41;5093903;28;20839;-32
2021/12/25 07:16:14;;;;;;;171.13;77.60;;;;;;;6.73;79.93;96358.81;5093958;28;20488;-33
2021/12/25 07:18:41;;;;;;;123.63;59.57;;;;;;;6.78;79.65;96366.88;5093530;28;20487;-32
2021/12/25 07:21:10;;;;;;;128.10;65.83;;;;;;;6.84;80.00;96360.72;5093111;28;20481;-34
2021/12/25 07:23:37;;;;;;;118.93;57.10;;;;;;;6.92;79.32;96360.38;5092757;28;20439;-32
2021/12/25 07:26:05;;;;;;;100.60;50.03;;;;;;;7.03;78.33;96363.28;5093808;28;20442;-31
2021/12/25 07:28:33;;;;;;;66.57;36.70;;;;;;;7.09;77.67;96355.28;5092735;28;20435;-32
2021/12/25 07:31:01;;;;;;;66.50;34.13;;;;;;;7.18;76.85;96358.41;5092709;28;20447;-33
2021/12/25 07:33:29;;;;;;;63.67;34.07;;;;;;;7.23;76.86;96358.56;5089903;28;20520;-33
2021/12/25 07:35:57;;;;;;;78.10;48.70;;;;;;;7.22;76.96;96351.66;5091717;28;20439;-32
2021/12/25 07:38:25;;;;;;;82.77;48.50;;;;;;;7.34;76.74;96365.69;5092061;28;20431;-32
2021/12/25 07:40:53;;;;;;;40.63;25.70;;;;;;;7.38;76.08;96361.56;5092731;28;20492;-33
2021/12/25 07:43:20;;;;;;;50.80;25.70;;;;;;;7.54;74.91;96367.22;5091433;28;20439;-33
2021/12/25 07:45:48;;;;;;;64.20;34.53;;;;;;;7.58;75.46;96373.69;5090268;28;20492;-33
2021/12/25 07:48:18;;;;;;;94.93;43.60;;;;;;;7.59;76.54;96367.34;5093227;28;20526;-33
2021/12/25 07:50:46;;;;;;;75.47;43.20;;;;;;;7.58;76.45;96381.59;5093559;28;20423;-31
2021/12/25 07:53:16;;;;;;;67.87;38.83;;;;;;;7.54;76.96;96375.16;5093247;28;20447;-32
2021/12/25 07:55:44;;;;;;;53.93;30.83;;;;;;;7.54;76.13;96375.97;5093180;28;20446;-32
2021/12/25 07:58:12;;;;;;;64.30;34.40;;;;;;;7.55;76.13;96382.88;5093233;28;20443;-32
2021/12/25 08:00:39;;;;;;;65.13;33.80;;;;;;;7.57;76.63;96375.53;5092942;28;20915;-30
2021/12/25 08:03:06;;;;;;;67.40;35.17;;;;;;;7.60;77.23;96379.53;5093148;28;20446;-30
2021/12/25 08:05:34;;;;;;;60.10;32.47;;;;;;;7.67;77.00;96374.16;5093415;28;20508;-32
2021/12/25 08:08:03;;;;;;;76.60;38.00;;;;;;;7.76;76.74;96373.56;5093380;28;20438;-33
2021/12/25 08:10:31;;;;;;;71.97;35.40;;;;;;;7.88;76.87;96381.53;5093388;28;20515;-32
2021/12/25 08:13:00;;;;;;;77.73;40.40;;;;;;;7.97;75.80;96385.44;5092877;28;20953;-32
2021/12/25 08:15:30;;;;;;;55.43;34.03;;;;;;;8.08;76.02;96394.41;5093415;28;20537;-32
2021/12/25 08:18:00;;;;;;;76.33;38.77;;;;;;;8.16;75.25;96383.47;5093798;28;20450;-31
2021/12/25 08:20:28;;;;;;;64.17;33.40;;;;;;;8.30;74.54;96393.81;5092810;28;21002;-32
2021/12/25 08:22:56;;;;;;;80.10;40.03;;;;;;;8.31;74.20;96364.50;5092942;28;20810;-31
2021/12/25 08:25:23;;;;;;;90.10;48.17;;;;;;;8.58;73.89;96386.00;5093293;28;20801;-30
2021/12/25 08:27:52;;;;;;;85.93;41.97;;;;;;;8.71;73.88;96378.81;5092938;28;20446;-32
2021/12/25 08:30:23;;;;;;;67.80;37.40;;;;;;;8.79;74.13;96391.69;5092889;28;20533;-31
2021/12/25 08:32:55;;;;;;;80.10;41.40;;;;;;;8.84;74.38;96389.16;5093623;28;20428;-34
2021/12/25 08:35:25;;;;;;;127.37;56.80;;;;;;;8.87;74.90;96388.69;5092419;28;20455;-31
2021/12/25 08:37:52;;;;;;;136.10;66.17;;;;;;;8.87;73.73;96370.16;5092894;28;20439;-30
2021/12/25 08:40:19;;;;;;;150.33;81.57;;;;;;;8.94;74.29;96378.75;5093139;28;20498;-31
2021/12/25 08:42:52;;;;;;;70.17;35.20;;;;;;;9.09;72.45;96377.44;5092939;28;20447;-30
2021/12/25 08:48:03;;;;;;;72.13;37.47;;;;;;;9.42;71.19;96368.75;5092490;28;20435;-30
2021/12/25 08:50:30;;;;;;;646.33;368.27;;;;;;;9.54;71.51;96363.41;5096673;28;20439;-30
2021/12/25 08:52:57;;;;;;;445.70;238.27;;;;;;;9.61;71.49;96362.22;5096650;28;20473;-31
2021/12/25 08:55:25;;;;;;;120.87;68.73;;;;;;;9.67;70.67;96354.34;5096053;28;20446;-30
2021/12/25 08:57:53;;;;;;;48.20;28.87;;;;;;;9.71;70.26;96352.81;5096286;28;20450;-31
2021/12/25 09:00:21;;;;;;;50.80;27.83;;;;;;;9.77;69.88;96350.00;5096143;28;21017;-31
2021/12/25 09:02:49;;;;;;;409.00;197.10;;;;;;;9.83;69.63;96343.72;5096400;28;20438;-30
2021/12/25 09:05:16;;;;;;;334.10;170.57;;;;;;;9.91;69.40;96355.75;5096415;28;20439;-31
2021/12/25 09:07:44;;;;;;;95.00;54.50;;;;;;;10.02;68.61;96356.72;5096317;28;20453;-31
2021/12/25 09:10:11;;;;;;;52.23;39.47;;;;;;;10.21;68.42;96346.63;5096344;28;20455;-30
2021/12/25 09:12:41;;;;;;;114.83;42.03;;;;;;;10.52;67.66;96339.09;5095994;28;20438;-31
2021/12/25 09:15:10;;;;;;;40.60;27.93;;;;;;;10.74;66.43;96336.47;5095956;28;20431;-30
2021/12/25 09:17:38;;;;;;;83.83;40.63;;;;;;;10.91;66.45;96331.88;5095873;28;20446;-31
2021/12/25 09:20:08;;;;;;;26.27;14.20;;;;;;;11.19;63.92;96319.41;5095717;28;20499;-30
2021/12/25 09:22:35;;;;;;;19.47;13.40;;;;;;;11.43;62.36;96317.22;5095772;28;20443;-32
2021/12/25 09:25:02;;;;;;;17.70;12.07;;;;;;;11.64;61.08;96307.56;5095931;28;20446;-31
2021/12/25 09:27:30;;;;;;;23.17;13.03;;;;;;;11.79;61.37;96310.31;5095684;28;20443;-31
2021/12/25 09:29:57;;;;;;;26.57;18.00;;;;;;;11.90;61.47;96310.44;5095593;28;20443;-31
2021/12/25 09:32:24;;;;;;;21.20;13.10;;;;;;;11.99;61.23;96308.88;5095768;28;20461;-31
2021/12/25 09:34:53;;;;;;;37.73;22.50;;;;;;;12.05;62.54;96308.66;5095859;28;20450;-31
2021/12/25 09:37:21;;;;;;;31.60;17.03;;;;;;;12.09;62.65;96304.44;5093257;28;20439;-31
2021/12/25 09:39:48;;;;;;;24.20;10.30;;;;;;;12.11;61.54;96306.84;5093305;28;20519;-31
2021/12/25 09:42:16;;;;;;;22.10;13.80;;;;;;;12.16;61.94;96316.72;5093617;28;20803;-31
2021/12/25 09:44:43;;;;;;;16.67;12.93;;;;;;;12.22;61.60;96297.06;5093459;28;20938;-31
2021/12/25 09:47:11;;;;;;;20.17;12.13;;;;;;;12.26;61.38;96298.94;5094041;28;20453;-31
2021/12/25 09:49:38;;;;;;;14.60;11.97;;;;;;;12.31;60.40;96302.69;5095182;28;20934;-31
2021/12/25 09:52:07;;;;;;;34.77;19.77;;;;;;;12.36;61.00;96289.38;5095180;28;20454;-31
2021/12/25 09:54:34;;;;;;;17.23;9.30;;;;;;;12.29;61.00;96276.31;5095402;28;20812;-31
2021/12/25 09:57:01;;;;;;;68.73;39.83;;;;;;;12.37;61.56;96286.47;5095369;28;20439;-31
2021/12/25 09:59:29;;;;;;;681.93;431.63;;;;;;;12.41;60.88;96284.06;5092835;28;20828;-31
2021/12/25 10:02:00;;;;;;;311.43;164.53;;;;;;;12.41;60.90;96284.06;5092884;28;20439;-31
2021/12/25 10:04:35;;;;;;;193.00;113.30;;;;;;;12.43;60.47;96287.28;5092976;28;20439;-32
2021/12/25 10:07:22;;;;;;;204.37;111.87;;;;;;;12.44;60.96;96284.38;5093170;28;20427;-32
2021/12/25 10:10:05;;;;;;;218.17;139.97;;;;;;;12.46;60.61;96271.59;5091480;28;20439;-32
2021/12/25 10:12:38;;;;;;;99.87;62.73;;;;;;;12.50;60.25;96282.53;5090172;28;20789;-31
2021/12/25 10:15:08;;;;;;;31.97;20.43;;;;;;;12.53;60.17;96279.34;5092898;28;20539;-31
2021/12/25 10:17:36;;;;;;;33.27;19.80;;;;;;;12.57;59.99;96282.28;5092815;28;20535;-31
2021/12/25 10:20:11;;;;;;;22.20;12.80;;;;;;;12.57;60.41;96290.28;5092665;28;20486;-31
2021/12/25 10:23:02;;;;;;;41.17;22.23;;;;;;;12.59;60.49;96285.50;5094166;28;20510;-31
2021/12/25 10:25:38;;;;;;;150.70;82.20;;;;;;;12.59;60.50;96280.97;5094590;28;20436;-31
2021/12/25 10:28:08;;;;;;;161.33;77.03;;;;;;;12.56;61.05;96300.13;5094505;28;20426;-32
2021/12/25 10:30:51;;;;;;;102.33;45.43;;;;;;;12.54;61.39;96278.28;5094489;28;20435;-31
2021/12/25 10:33:27;;;;;;;31.20;16.37;;;;;;;12.45;62.08;96274.50;5092927;28;20494;-32
2021/12/25 10:35:54;;;;;;;35.57;17.47;;;;;;;12.35;62.75;96287.81;5092271;28;20445;-32
2021/12/25 10:38:24;;;;;;;57.37;23.47;;;;;;;12.29;63.13;96271.00;5092500;28;20443;-32
2021/12/25 10:40:51;;;;;;;30.00;18.40;;;;;;;12.28;62.92;96278.19;5094537;28;20541;-32
2021/12/25 10:43:23;;;;;;;26.43;15.80;;;;;;;12.31;62.56;96273.41;5094274;28;20957;-30
2021/12/25 10:46:01;;;;;;;89.10;44.00;;;;;;;12.36;62.04;96276.88;5094226;28;20960;-31
2021/12/25 10:48:30;;;;;;;129.07;67.37;;;;;;;12.42;61.64;96275.84;5094118;28;20446;-31
2021/12/25 10:50:59;;;;;;;92.63;49.17;;;;;;;12.45;62.33;96269.19;5094068;28;20445;-31
2021/12/25 10:53:31;;;;;;;62.03;36.00;;;;;;;12.48;61.84;96269.47;5094393;28;20788;-30
2021/12/25 10:56:07;;;;;;;62.63;27.90;;;;;;;12.54;61.79;96270.31;5094330;28;20454;-30
2021/12/25 10:58:34;;;;;;;44.73;25.03;;;;;;;12.58;61.03;96258.03;5094288;28;20419;-30
2021/12/25 11:01:05;;;;;;;17.17;11.97;;;;;;;12.58;59.65;96260.69;5093934;28;20486;-31
2021/12/25 11:03:35;;;;;;;37.87;18.43;;;;;;;12.56;60.06;96260.19;5093392;28;20431;-31
2021/12/25 11:06:06;;;;;;;56.73;31.40;;;;;;;12.57;61.19;96267.09;5092512;28;20443;-31
2021/12/25 11:08:36;;;;;;;54.77;26.03;;;;;;;12.62;61.13;96258.31;5093804;28;20435;-30
2021/12/25 11:11:06;;;;;;;84.37;44.03;;;;;;;12.65;60.61;96263.94;5093293;28;20463;-31
2021/12/25 11:13:35;;;;;;;62.87;32.00;;;;;;;12.69;62.04;96258.88;5094506;28;20436;-32
2021/12/25 11:16:22;;;;;;;48.43;24.37;;;;;;;12.78;60.74;96261.84;5083716;28;20448;-31
2021/12/25 11:19:00;;;;;;;29.37;19.47;;;;;;;12.85;59.98;96257.06;5073511;28;20939;-30
2021/12/25 11:21:28;;;;;;;34.67;18.60;;;;;;;12.98;60.80;96250.41;5077521;28;20495;-30
2021/12/25 11:24:08;;;;;;;23.93;13.97;;;;;;;13.07;60.07;96260.28;5073331;28;20923;-31
2021/12/25 11:26:36;;;;;;;70.43;36.43;;;;;;;13.11;60.22;96260.56;5093204;28;20443;-31
2021/12/25 11:29:04;;;;;;;74.33;40.07;;;;;;;13.10;60.77;96249.09;5093420;28;20439;-30
2021/12/25 11:31:32;;;;;;;51.30;24.57;;;;;;;13.16;58.91;96249.91;5093745;28;20476;-30
2021/12/25 11:34:00;;;;;;;49.20;27.23;;;;;;;13.19;59.64;96251.25;5093672;28;20441;-31
2021/12/25 11:36:27;;;;;;;27.33;18.57;;;;;;;13.20;59.82;96242.16;5093672;28;20439;-30
2021/12/25 11:38:54;;;;;;;264.03;154.60;;;;;;;13.24;59.32;96245.91;5093716;28;20449;-30
2021/12/25 11:41:28;;;;;;;87.53;49.63;;;;;;;13.24;59.97;96248.56;5093623;28;20881;-30
2021/12/25 11:43:56;;;;;;;68.80;31.77;;;;;;;13.21;58.53;96230.47;5092366;28;20442;-30
2021/12/25 11:46:38;;;;;;;217.50;80.93;;;;;;;13.25;59.46;96231.50;5093782;28;20450;-31
2021/12/25 11:49:08;;;;;;;62.47;35.00;;;;;;;13.35;58.34;96228.06;5093703;28;20427;-30
2021/12/25 11:51:39;;;;;;;80.03;45.93;;;;;;;13.44;57.84;96227.28;5093551;28;20447;-30
2021/12/25 11:54:30;;;;;;;164.10;84.17;;;;;;;13.57;57.41;96236.59;5093592;28;20455;-30
2021/12/25 11:57:11;;;;;;;750.97;478.47;;;;;;;13.78;56.88;96237.34;5093220;28;20518;-30
2021/12/25 11:59:45;;;;;;;339.80;171.93;;;;;;;13.95;57.50;96236.25;5093455;28;20431;-31
2021/12/25 12:02:13;;;;;;;77.87;46.10;;;;;;;13.99;55.47;96215.97;5093223;28;20911;-30
2021/12/25 12:04:41;;;;;;;169.37;75.90;;;;;;;14.25;54.91;96241.50;5093392;28;20475;-32
2021/12/25 12:07:13;;;;;;;100.40;53.67;;;;;;;14.37;55.14;96225.19;5080517;28;20448;-30
2021/12/25 12:09:55;;;;;;;81.90;43.47;;;;;;;14.50;54.62;96229.13;5073108;28;20425;-30
2021/12/25 12:12:26;;;;;;;102.23;52.80;;;;;;;14.61;53.82;96220.00;5075648;28;20488;-30
2021/12/25 12:15:10;;;;;;;79.87;43.37;;;;;;;14.69;52.43;96219.44;5090519;28;20487;-32
2021/12/25 12:17:38;;;;;;;18.80;13.10;;;;;;;14.74;53.61;96223.94;5093150;28;20423;-30
2021/12/25 12:20:09;;;;;;;20.60;13.47;;;;;;;14.81;52.87;96220.97;5089237;28;20544;-34
2021/12/25 12:22:49;;;;;;;38.77;20.00;;;;;;;14.84;52.70;96223.06;5094574;28;20448;-31
2021/12/25 12:25:24;;;;;;;30.10;16.43;;;;;;;14.92;53.08;96220.59;5092997;28;20529;-30